sensor_id;sensor_type;location;lat;lon;timestamp;temperature;humidity
16846;DHT22;8539;53.188;8.696;2023-04-25T00:02:07;6.90;99.90
16846;DHT22;8539;53.188;8.696;2023-04-25T00:04:33;6.90;99.90
16846;DHT22;8539;53.188;8.696;2023-04-25T00:06:59;6.90;99.90
16846;DHT22;8539;53.188;8.696;2023-04-25T00:09:28;6.90;99.90
16846;DHT22;8539;53.188;8.696;2023-04-25T00:11:54;6.80;99.90
16846;DHT22;8539;53.188;8.696;2023-04-25T00:14:20;6.80;99.90
16846;DHT22;8539;53.188;8.696;2023-04-25T00:16:47;6.80;99.90
16846;DHT22;8539;53.188;8.696;2023-04-25T00:19:14;6.90;99.90
16846;DHT22;8539;53.188;8.696;2023-04-25T00:21:40;6.80;99.90
16846;DHT22;8539;53.188;8.696;2023-04-25T00:24:07;6.70;99.90
16846;DHT22;8539;53.188;8.696;2023-04-25T00:26:34;6.70;99.90
16846;DHT22;8539;53.188;8.696;2023-04-25T00:29:01;6.60;99.90
16846;DHT22;8539;53.188;8.696;2023-04-25T00:31:27;6.60;99.90
16846;DHT22;8539;53.188;8.696;2023-04-25T00:33:54;6.60;99.90
16846;DHT22;8539;53.188;8.696;2023-04-25T00:36:23;6.80;99.90
16846;DHT22;8539;53.188;8.696;2023-04-25T00:38:50;6.50;99.90
16846;DHT22;8539;53.188;8.696;2023-04-25T00:41:16;6.50;99.90
16846;DHT22;8539;53.188;8.696;2023-04-25T00:43:42;6.50;99.90
16846;DHT22;8539;53.188;8.696;2023-04-25T00:46:09;6.50;99.90
16846;DHT22;8539;53.188;8.696;2023-04-25T00:48:36;6.40;99.90
16846;DHT22;8539;53.188;8.696;2023-04-25T00:51:02;6.40;99.90
16846;DHT22;8539;53.188;8.696;2023-04-25T00:53:28;6.40;99.90
16846;DHT22;8539;53.188;8.696;2023-04-25T00:55:55;6.40;99.90
16846;DHT22;8539;53.188;8.696;2023-04-25T00:58:22;6.40;99.90
16846;DHT22;8539;53.188;8.696;2023-04-25T01:00:50;6.40;99.90
16846;DHT22;8539;53.188;8.696;2023-04-25T01:03:18;6.30;99.90
16846;DHT22;8539;53.188;8.696;2023-04-25T01:05:47;6.30;99.90
16846;DHT22;8539;53.188;8.696;2023-04-25T01:08:16;6.30;99.90
16846;DHT22;8539;53.188;8.696;2023-04-25T01:10:42;6.30;99.90
16846;DHT22;8539;53.188;8.696;2023-04-25T01:13:08;6.30;99.90
16846;DHT22;8539;53.188;8.696;2023-04-25T01:15:35;6.30;99.90
16846;DHT22;8539;53.188;8.696;2023-04-25T01:18:02;6.20;99.90
16846;DHT22;8539;53.188;8.696;2023-04-25T01:20:28;6.20;99.90
16846;DHT22;8539;53.188;8.696;2023-04-25T01:22:55;6.50;99.90
16846;DHT22;8539;53.188;8.696;2023-04-25T01:25:22;6.20;99.90
16846;DHT22;8539;53.188;8.696;2023-04-25T01:27:48;6.10;99.90
16846;DHT22;8539;53.188;8.696;2023-04-25T01:30:14;6.10;99.90
16846;DHT22;8539;53.188;8.696;2023-04-25T01:32:41;6.00;99.90
16846;DHT22;8539;53.188;8.696;2023-04-25T01:35:10;6.10;99.90
16846;DHT22;8539;53.188;8.696;2023-04-25T01:37:43;6.00;99.90
16846;DHT22;8539;53.188;8.696;2023-04-25T01:40:10;5.90;99.90
16846;DHT22;8539;53.188;8.696;2023-04-25T01:42:40;5.90;99.90
16846;DHT22;8539;53.188;8.696;2023-04-25T01:45:07;5.80;99.90
16846;DHT22;8539;53.188;8.696;2023-04-25T01:47:34;5.80;99.90
16846;DHT22;8539;53.188;8.696;2023-04-25T01:50:04;5.70;99.90
16846;DHT22;8539;53.188;8.696;2023-04-25T01:52:30;5.70;99.90
16846;DHT22;8539;53.188;8.696;2023-04-25T01:54:57;5.60;99.90
16846;DHT22;8539;53.188;8.696;2023-04-25T01:57:25;5.60;99.90
16846;DHT22;8539;53.188;8.696;2023-04-25T01:59:51;5.60;99.90
16846;DHT22;8539;53.188;8.696;2023-04-25T02:02:17;5.50;99.90
16846;DHT22;8539;53.188;8.696;2023-04-25T02:04:43;5.50;99.90
16846;DHT22;8539;53.188;8.696;2023-04-25T02:07:09;5.50;99.90
16846;DHT22;8539;53.188;8.696;2023-04-25T02:09:35;5.50;99.90
16846;DHT22;8539;53.188;8.696;2023-04-25T02:12:01;5.50;99.90
16846;DHT22;8539;53.188;8.696;2023-04-25T02:14:27;5.40;99.90
16846;DHT22;8539;53.188;8.696;2023-04-25T02:16:54;5.40;99.90
16846;DHT22;8539;53.188;8.696;2023-04-25T02:19:20;5.40;99.90
16846;DHT22;8539;53.188;8.696;2023-04-25T02:21:46;5.80;99.90
16846;DHT22;8539;53.188;8.696;2023-04-25T02:24:12;5.30;99.90
16846;DHT22;8539;53.188;8.696;2023-04-25T02:26:39;5.30;99.90
16846;DHT22;8539;53.188;8.696;2023-04-25T02:29:05;5.30;99.90
16846;DHT22;8539;53.188;8.696;2023-04-25T02:31:31;5.30;99.90
16846;DHT22;8539;53.188;8.696;2023-04-25T02:33:57;5.30;99.90
16846;DHT22;8539;53.188;8.696;2023-04-25T02:36:23;5.30;99.90
16846;DHT22;8539;53.188;8.696;2023-04-25T02:38:50;5.50;99.90
16846;DHT22;8539;53.188;8.696;2023-04-25T02:41:16;5.40;99.90
16846;DHT22;8539;53.188;8.696;2023-04-25T02:43:42;5.50;99.90
16846;DHT22;8539;53.188;8.696;2023-04-25T02:46:08;5.30;99.90
16846;DHT22;8539;53.188;8.696;2023-04-25T02:48:34;5.30;99.90
16846;DHT22;8539;53.188;8.696;2023-04-25T02:51:00;5.50;99.90
16846;DHT22;8539;53.188;8.696;2023-04-25T02:53:26;5.30;99.90
16846;DHT22;8539;53.188;8.696;2023-04-25T02:55:52;5.50;99.90
16846;DHT22;8539;53.188;8.696;2023-04-25T02:58:18;5.30;99.90
16846;DHT22;8539;53.188;8.696;2023-04-25T03:00:44;5.30;99.90
16846;DHT22;8539;53.188;8.696;2023-04-25T03:03:10;5.30;99.90
16846;DHT22;8539;53.188;8.696;2023-04-25T03:05:36;5.20;99.90
16846;DHT22;8539;53.188;8.696;2023-04-25T03:08:03;5.20;99.90
16846;DHT22;8539;53.188;8.696;2023-04-25T03:10:29;5.20;99.90
16846;DHT22;8539;53.188;8.696;2023-04-25T03:12:55;5.20;99.90
16846;DHT22;8539;53.188;8.696;2023-04-25T03:15:21;5.10;99.90
16846;DHT22;8539;53.188;8.696;2023-04-25T03:17:47;5.10;99.90
16846;DHT22;8539;53.188;8.696;2023-04-25T03:20:13;5.10;99.90
16846;DHT22;8539;53.188;8.696;2023-04-25T03:22:39;5.10;99.90
16846;DHT22;8539;53.188;8.696;2023-04-25T03:25:06;5.20;99.90
16846;DHT22;8539;53.188;8.696;2023-04-25T03:27:32;5.10;99.90
16846;DHT22;8539;53.188;8.696;2023-04-25T03:29:58;5.10;99.90
16846;DHT22;8539;53.188;8.696;2023-04-25T03:32:24;5.10;99.90
16846;DHT22;8539;53.188;8.696;2023-04-25T03:34:50;5.30;99.90
16846;DHT22;8539;53.188;8.696;2023-04-25T03:37:16;5.10;99.90
16846;DHT22;8539;53.188;8.696;2023-04-25T03:39:42;5.10;99.90
16846;DHT22;8539;53.188;8.696;2023-04-25T03:42:08;5.00;99.90
16846;DHT22;8539;53.188;8.696;2023-04-25T03:44:34;5.50;99.90
16846;DHT22;8539;53.188;8.696;2023-04-25T03:47:00;5.10;99.90
16846;DHT22;8539;53.188;8.696;2023-04-25T03:49:26;5.10;99.90
16846;DHT22;8539;53.188;8.696;2023-04-25T03:51:52;5.00;99.90
16846;DHT22;8539;53.188;8.696;2023-04-25T03:54:18;5.00;99.90
16846;DHT22;8539;53.188;8.696;2023-04-25T03:56:45;5.00;99.90
16846;DHT22;8539;53.188;8.696;2023-04-25T03:59:11;5.00;99.90
16846;DHT22;8539;53.188;8.696;2023-04-25T04:01:37;4.90;99.90
16846;DHT22;8539;53.188;8.696;2023-04-25T04:04:03;5.00;99.90
16846;DHT22;8539;53.188;8.696;2023-04-25T04:06:29;4.90;99.90
16846;DHT22;8539;53.188;8.696;2023-04-25T04:08:55;4.90;99.90
16846;DHT22;8539;53.188;8.696;2023-04-25T04:11:24;4.90;99.90
16846;DHT22;8539;53.188;8.696;2023-04-25T04:13:50;5.00;99.90
16846;DHT22;8539;53.188;8.696;2023-04-25T04:16:16;4.90;99.90
16846;DHT22;8539;53.188;8.696;2023-04-25T04:18:42;4.90;99.90
16846;DHT22;8539;53.188;8.696;2023-04-25T04:21:08;5.40;99.90
16846;DHT22;8539;53.188;8.696;2023-04-25T04:23:34;5.00;99.90
16846;DHT22;8539;53.188;8.696;2023-04-25T04:26:01;5.10;99.90
16846;DHT22;8539;53.188;8.696;2023-04-25T04:28:27;5.30;99.90
16846;DHT22;8539;53.188;8.696;2023-04-25T04:30:53;5.50;99.90
16846;DHT22;8539;53.188;8.696;2023-04-25T04:33:19;5.00;99.90
16846;DHT22;8539;53.188;8.696;2023-04-25T04:35:46;5.10;99.90
16846;DHT22;8539;53.188;8.696;2023-04-25T04:38:13;5.00;99.90
16846;DHT22;8539;53.188;8.696;2023-04-25T04:40:41;5.00;99.90
16846;DHT22;8539;53.188;8.696;2023-04-25T04:43:10;5.00;99.90
16846;DHT22;8539;53.188;8.696;2023-04-25T04:45:37;5.00;99.90
16846;DHT22;8539;53.188;8.696;2023-04-25T04:48:05;5.10;99.90
16846;DHT22;8539;53.188;8.696;2023-04-25T04:50:32;5.00;99.90
16846;DHT22;8539;53.188;8.696;2023-04-25T04:52:58;5.10;99.90
16846;DHT22;8539;53.188;8.696;2023-04-25T04:55:24;5.10;99.90
16846;DHT22;8539;53.188;8.696;2023-04-25T04:57:50;5.40;99.90
16846;DHT22;8539;53.188;8.696;2023-04-25T05:00:17;5.10;99.90
16846;DHT22;8539;53.188;8.696;2023-04-25T05:02:43;5.10;99.90
16846;DHT22;8539;53.188;8.696;2023-04-25T05:05:09;5.50;99.90
16846;DHT22;8539;53.188;8.696;2023-04-25T05:07:36;5.20;99.90
16846;DHT22;8539;53.188;8.696;2023-04-25T05:10:02;5.20;99.90
16846;DHT22;8539;53.188;8.696;2023-04-25T05:12:29;5.20;99.90
16846;DHT22;8539;53.188;8.696;2023-04-25T05:14:56;5.20;99.90
16846;DHT22;8539;53.188;8.696;2023-04-25T05:17:22;5.20;99.90
16846;DHT22;8539;53.188;8.696;2023-04-25T05:19:48;5.80;99.90
16846;DHT22;8539;53.188;8.696;2023-04-25T05:22:14;5.30;99.90
16846;DHT22;8539;53.188;8.696;2023-04-25T05:24:40;5.30;99.90
16846;DHT22;8539;53.188;8.696;2023-04-25T05:27:06;5.40;99.90
16846;DHT22;8539;53.188;8.696;2023-04-25T05:29:33;5.30;99.90
16846;DHT22;8539;53.188;8.696;2023-04-25T05:31:59;5.30;99.90
16846;DHT22;8539;53.188;8.696;2023-04-25T05:34:25;5.40;99.90
16846;DHT22;8539;53.188;8.696;2023-04-25T05:36:51;5.40;99.90
16846;DHT22;8539;53.188;8.696;2023-04-25T05:39:17;5.40;99.90
16846;DHT22;8539;53.188;8.696;2023-04-25T05:41:44;5.50;99.90
16846;DHT22;8539;53.188;8.696;2023-04-25T05:44:10;5.40;99.90
16846;DHT22;8539;53.188;8.696;2023-04-25T05:46:36;5.50;99.90
16846;DHT22;8539;53.188;8.696;2023-04-25T05:49:03;5.60;99.90
16846;DHT22;8539;53.188;8.696;2023-04-25T05:51:29;5.80;99.90
16846;DHT22;8539;53.188;8.696;2023-04-25T05:53:55;5.90;99.90
16846;DHT22;8539;53.188;8.696;2023-04-25T05:56:21;6.20;99.90
16846;DHT22;8539;53.188;8.696;2023-04-25T05:58:47;6.50;99.90
16846;DHT22;8539;53.188;8.696;2023-04-25T06:01:13;6.70;99.90
16846;DHT22;8539;53.188;8.696;2023-04-25T06:03:40;6.80;99.90
16846;DHT22;8539;53.188;8.696;2023-04-25T06:06:09;7.40;99.90
16846;DHT22;8539;53.188;8.696;2023-04-25T06:08:35;8.20;99.90
16846;DHT22;8539;53.188;8.696;2023-04-25T06:11:01;8.30;99.90
16846;DHT22;8539;53.188;8.696;2023-04-25T06:13:27;8.00;99.90
16846;DHT22;8539;53.188;8.696;2023-04-25T06:15:53;7.80;99.90
16846;DHT22;8539;53.188;8.696;2023-04-25T06:18:19;7.60;99.90
16846;DHT22;8539;53.188;8.696;2023-04-25T06:20:45;7.40;99.90
16846;DHT22;8539;53.188;8.696;2023-04-25T06:23:12;7.20;99.90
16846;DHT22;8539;53.188;8.696;2023-04-25T06:25:38;7.00;99.90
16846;DHT22;8539;53.188;8.696;2023-04-25T06:28:04;6.90;99.90
16846;DHT22;8539;53.188;8.696;2023-04-25T06:30:30;6.80;99.90
16846;DHT22;8539;53.188;8.696;2023-04-25T06:32:56;7.30;99.90
16846;DHT22;8539;53.188;8.696;2023-04-25T06:35:22;6.90;99.90
16846;DHT22;8539;53.188;8.696;2023-04-25T06:37:48;6.90;99.90
16846;DHT22;8539;53.188;8.696;2023-04-25T06:40:15;7.00;99.90
16846;DHT22;8539;53.188;8.696;2023-04-25T06:42:43;6.90;99.90
16846;DHT22;8539;53.188;8.696;2023-04-25T06:45:09;6.80;99.90
16846;DHT22;8539;53.188;8.696;2023-04-25T06:47:36;6.70;99.90
16846;DHT22;8539;53.188;8.696;2023-04-25T06:50:02;6.60;99.90
16846;DHT22;8539;53.188;8.696;2023-04-25T06:52:28;6.60;99.90
16846;DHT22;8539;53.188;8.696;2023-04-25T06:54:54;6.50;99.90
16846;DHT22;8539;53.188;8.696;2023-04-25T06:57:20;6.50;99.90
16846;DHT22;8539;53.188;8.696;2023-04-25T06:59:47;6.50;99.90
16846;DHT22;8539;53.188;8.696;2023-04-25T07:02:13;6.60;99.90
16846;DHT22;8539;53.188;8.696;2023-04-25T07:04:39;6.70;99.90
16846;DHT22;8539;53.188;8.696;2023-04-25T07:07:05;7.00;99.90
16846;DHT22;8539;53.188;8.696;2023-04-25T07:09:31;6.80;99.90
16846;DHT22;8539;53.188;8.696;2023-04-25T07:12:00;7.00;99.90
16846;DHT22;8539;53.188;8.696;2023-04-25T07:14:27;6.90;99.90
16846;DHT22;8539;53.188;8.696;2023-04-25T07:16:53;6.90;99.90
16846;DHT22;8539;53.188;8.696;2023-04-25T07:19:23;6.90;99.90
16846;DHT22;8539;53.188;8.696;2023-04-25T07:21:52;7.30;99.90
16846;DHT22;8539;53.188;8.696;2023-04-25T07:24:18;7.50;99.90
16846;DHT22;8539;53.188;8.696;2023-04-25T07:26:45;8.00;99.90
16846;DHT22;8539;53.188;8.696;2023-04-25T07:29:11;8.00;99.90
16846;DHT22;8539;53.188;8.696;2023-04-25T07:31:37;8.60;99.90
16846;DHT22;8539;53.188;8.696;2023-04-25T07:34:03;8.40;99.90
16846;DHT22;8539;53.188;8.696;2023-04-25T07:36:30;8.60;99.90
16846;DHT22;8539;53.188;8.696;2023-04-25T07:38:56;8.80;99.90
16846;DHT22;8539;53.188;8.696;2023-04-25T07:41:23;8.90;99.90
16846;DHT22;8539;53.188;8.696;2023-04-25T07:43:49;9.10;99.90
16846;DHT22;8539;53.188;8.696;2023-04-25T07:46:15;9.30;99.90
16846;DHT22;8539;53.188;8.696;2023-04-25T07:48:41;9.40;99.90
16846;DHT22;8539;53.188;8.696;2023-04-25T07:51:07;9.50;99.90
16846;DHT22;8539;53.188;8.696;2023-04-25T07:53:33;9.40;99.90
16846;DHT22;8539;53.188;8.696;2023-04-25T07:56:00;9.30;99.90
16846;DHT22;8539;53.188;8.696;2023-04-25T07:58:26;9.10;99.90
16846;DHT22;8539;53.188;8.696;2023-04-25T08:00:52;8.90;99.90
16846;DHT22;8539;53.188;8.696;2023-04-25T08:03:18;8.70;99.90
16846;DHT22;8539;53.188;8.696;2023-04-25T08:05:45;8.70;99.90
16846;DHT22;8539;53.188;8.696;2023-04-25T08:08:11;8.40;99.90
16846;DHT22;8539;53.188;8.696;2023-04-25T08:10:37;8.30;99.90
16846;DHT22;8539;53.188;8.696;2023-04-25T08:13:03;8.30;99.90
16846;DHT22;8539;53.188;8.696;2023-04-25T08:15:29;8.10;99.90
16846;DHT22;8539;53.188;8.696;2023-04-25T08:17:56;8.10;99.90
16846;DHT22;8539;53.188;8.696;2023-04-25T08:20:22;8.30;99.90
16846;DHT22;8539;53.188;8.696;2023-04-25T08:22:48;8.30;99.90
16846;DHT22;8539;53.188;8.696;2023-04-25T08:25:14;8.40;99.90
16846;DHT22;8539;53.188;8.696;2023-04-25T08:27:41;8.30;99.90
16846;DHT22;8539;53.188;8.696;2023-04-25T08:30:07;8.30;99.90
16846;DHT22;8539;53.188;8.696;2023-04-25T08:32:35;8.30;99.90
16846;DHT22;8539;53.188;8.696;2023-04-25T08:35:04;8.30;99.90
16846;DHT22;8539;53.188;8.696;2023-04-25T08:37:30;8.30;99.90
16846;DHT22;8539;53.188;8.696;2023-04-25T08:39:56;8.80;99.90
16846;DHT22;8539;53.188;8.696;2023-04-25T08:42:24;8.40;99.90
16846;DHT22;8539;53.188;8.696;2023-04-25T08:44:53;8.50;99.90
16846;DHT22;8539;53.188;8.696;2023-04-25T08:47:22;8.60;99.90
16846;DHT22;8539;53.188;8.696;2023-04-25T08:49:48;8.80;99.90
16846;DHT22;8539;53.188;8.696;2023-04-25T08:52:17;9.00;99.90
16846;DHT22;8539;53.188;8.696;2023-04-25T08:54:48;9.30;99.90
16846;DHT22;8539;53.188;8.696;2023-04-25T08:57:14;9.60;99.90
16846;DHT22;8539;53.188;8.696;2023-04-25T08:59:41;9.90;99.90
16846;DHT22;8539;53.188;8.696;2023-04-25T09:02:12;10.40;99.90
16846;DHT22;8539;53.188;8.696;2023-04-25T09:04:43;10.80;99.90
16846;DHT22;8539;53.188;8.696;2023-04-25T09:07:09;11.00;99.90
16846;DHT22;8539;53.188;8.696;2023-04-25T09:09:35;11.20;99.90
16846;DHT22;8539;53.188;8.696;2023-04-25T09:12:02;11.60;99.90
16846;DHT22;8539;53.188;8.696;2023-04-25T09:14:29;11.70;99.90
16846;DHT22;8539;53.188;8.696;2023-04-25T09:17:02;11.60;99.90
16846;DHT22;8539;53.188;8.696;2023-04-25T09:19:34;11.20;99.90
16846;DHT22;8539;53.188;8.696;2023-04-25T09:22:06;10.90;99.90
16846;DHT22;8539;53.188;8.696;2023-04-25T09:24:38;10.60;99.90
16846;DHT22;8539;53.188;8.696;2023-04-25T09:27:09;10.00;99.90
16846;DHT22;8539;53.188;8.696;2023-04-25T09:29:40;9.40;99.90
16846;DHT22;8539;53.188;8.696;2023-04-25T09:32:20;8.90;99.90
16846;DHT22;8539;53.188;8.696;2023-04-25T09:34:52;8.70;99.90
16846;DHT22;8539;53.188;8.696;2023-04-25T09:37:24;8.50;99.90
16846;DHT22;8539;53.188;8.696;2023-04-25T09:39:58;8.40;99.90
16846;DHT22;8539;53.188;8.696;2023-04-25T09:42:26;8.50;99.90
16846;DHT22;8539;53.188;8.696;2023-04-25T09:44:54;8.60;99.90
16846;DHT22;8539;53.188;8.696;2023-04-25T09:47:23;8.80;99.90
16846;DHT22;8539;53.188;8.696;2023-04-25T09:49:50;8.90;99.90
16846;DHT22;8539;53.188;8.696;2023-04-25T09:52:22;9.10;99.90
16846;DHT22;8539;53.188;8.696;2023-04-25T09:54:49;9.20;99.90
16846;DHT22;8539;53.188;8.696;2023-04-25T09:57:23;9.40;99.90
16846;DHT22;8539;53.188;8.696;2023-04-25T09:59:54;9.70;99.90
16846;DHT22;8539;53.188;8.696;2023-04-25T10:02:25;10.30;99.90
16846;DHT22;8539;53.188;8.696;2023-04-25T10:04:52;10.80;99.90
16846;DHT22;8539;53.188;8.696;2023-04-25T10:07:29;11.10;99.90
16846;DHT22;8539;53.188;8.696;2023-04-25T10:10:05;11.10;99.90
16846;DHT22;8539;53.188;8.696;2023-04-25T10:12:33;11.10;99.90
16846;DHT22;8539;53.188;8.696;2023-04-25T10:14:59;11.10;99.90
16846;DHT22;8539;53.188;8.696;2023-04-25T10:17:31;11.20;99.90
16846;DHT22;8539;53.188;8.696;2023-04-25T10:20:00;11.10;99.90
16846;DHT22;8539;53.188;8.696;2023-04-25T10:22:34;11.10;99.90
16846;DHT22;8539;53.188;8.696;2023-04-25T10:25:01;11.20;99.90
16846;DHT22;8539;53.188;8.696;2023-04-25T10:27:30;11.20;99.90
16846;DHT22;8539;53.188;8.696;2023-04-25T10:30:15;11.00;99.90
16846;DHT22;8539;53.188;8.696;2023-04-25T10:32:42;10.90;99.90
16846;DHT22;8539;53.188;8.696;2023-04-25T10:35:24;10.80;99.90
16846;DHT22;8539;53.188;8.696;2023-04-25T10:38:16;10.70;99.90
16846;DHT22;8539;53.188;8.696;2023-04-25T10:41:02;10.70;99.90
16846;DHT22;8539;53.188;8.696;2023-04-25T10:43:59;11.00;99.90
16846;DHT22;8539;53.188;8.696;2023-04-25T10:46:28;11.10;99.90
16846;DHT22;8539;53.188;8.696;2023-04-25T10:48:59;11.10;99.90
16846;DHT22;8539;53.188;8.696;2023-04-25T10:51:33;11.10;99.90
16846;DHT22;8539;53.188;8.696;2023-04-25T10:54:01;11.20;99.90
16846;DHT22;8539;53.188;8.696;2023-04-25T10:56:45;11.50;99.90
16846;DHT22;8539;53.188;8.696;2023-04-25T10:59:15;11.90;99.90
16846;DHT22;8539;53.188;8.696;2023-04-25T11:01:53;11.80;99.90
16846;DHT22;8539;53.188;8.696;2023-04-25T11:04:21;11.30;99.90
16846;DHT22;8539;53.188;8.696;2023-04-25T11:09:36;10.60;99.90
16846;DHT22;8539;53.188;8.696;2023-04-25T11:12:04;10.20;99.90
16846;DHT22;8539;53.188;8.696;2023-04-25T11:14:30;10.20;99.90
16846;DHT22;8539;53.188;8.696;2023-04-25T11:16:59;10.20;99.90
16846;DHT22;8539;53.188;8.696;2023-04-25T11:19:26;10.20;99.90
16846;DHT22;8539;53.188;8.696;2023-04-25T11:21:56;10.00;99.90
16846;DHT22;8539;53.188;8.696;2023-04-25T11:24:30;9.80;99.90
16846;DHT22;8539;53.188;8.696;2023-04-25T11:26:58;9.60;99.90
16846;DHT22;8539;53.188;8.696;2023-04-25T11:29:28;9.50;99.90
16846;DHT22;8539;53.188;8.696;2023-04-25T11:31:54;9.50;99.90
16846;DHT22;8539;53.188;8.696;2023-04-25T11:34:24;9.50;99.90
16846;DHT22;8539;53.188;8.696;2023-04-25T11:36:51;9.60;99.90
16846;DHT22;8539;53.188;8.696;2023-04-25T11:39:19;9.70;99.90
16846;DHT22;8539;53.188;8.696;2023-04-25T11:41:46;9.70;99.90
16846;DHT22;8539;53.188;8.696;2023-04-25T11:44:16;9.90;99.90
16846;DHT22;8539;53.188;8.696;2023-04-25T11:46:43;11.10;99.90
16846;DHT22;8539;53.188;8.696;2023-04-25T11:49:09;10.50;99.90
16846;DHT22;8539;53.188;8.696;2023-04-25T11:51:39;10.90;99.90
16846;DHT22;8539;53.188;8.696;2023-04-25T11:54:06;11.10;99.90
16846;DHT22;8539;53.188;8.696;2023-04-25T11:56:33;10.90;99.90
16846;DHT22;8539;53.188;8.696;2023-04-25T11:59:01;10.50;99.90
16846;DHT22;8539;53.188;8.696;2023-04-25T12:01:28;10.00;99.90
16846;DHT22;8539;53.188;8.696;2023-04-25T12:03:56;9.60;99.90
16846;DHT22;8539;53.188;8.696;2023-04-25T12:06:29;9.40;99.90
16846;DHT22;8539;53.188;8.696;2023-04-25T12:09:07;9.10;99.90
16846;DHT22;8539;53.188;8.696;2023-04-25T12:16:55;9.00;99.90
16846;DHT22;8539;53.188;8.696;2023-04-25T12:19:21;9.00;99.90
16846;DHT22;8539;53.188;8.696;2023-04-25T12:21:48;9.10;99.90
16846;DHT22;8539;53.188;8.696;2023-04-25T12:24:16;9.30;99.90
16846;DHT22;8539;53.188;8.696;2023-04-25T12:29:28;9.90;99.90
16846;DHT22;8539;53.188;8.696;2023-04-25T12:31:55;10.30;99.90
16846;DHT22;8539;53.188;8.696;2023-04-25T12:34:22;10.70;99.90
16846;DHT22;8539;53.188;8.696;2023-04-25T12:36:49;11.10;99.90
16846;DHT22;8539;53.188;8.696;2023-04-25T12:39:21;11.50;99.90
16846;DHT22;8539;53.188;8.696;2023-04-25T12:41:49;11.90;99.90
16846;DHT22;8539;53.188;8.696;2023-04-25T12:44:15;12.10;99.90
16846;DHT22;8539;53.188;8.696;2023-04-25T12:46:41;12.30;99.90
16846;DHT22;8539;53.188;8.696;2023-04-25T12:49:08;12.20;99.90
16846;DHT22;8539;53.188;8.696;2023-04-25T12:51:35;11.90;99.90
16846;DHT22;8539;53.188;8.696;2023-04-25T12:54:02;11.40;99.90
16846;DHT22;8539;53.188;8.696;2023-04-25T12:56:30;11.00;99.90
16846;DHT22;8539;53.188;8.696;2023-04-25T12:58:57;10.50;99.90
16846;DHT22;8539;53.188;8.696;2023-04-25T13:01:25;10.00;99.90
16846;DHT22;8539;53.188;8.696;2023-04-25T13:03:52;9.80;99.90
16846;DHT22;8539;53.188;8.696;2023-04-25T13:06:20;9.70;99.90
16846;DHT22;8539;53.188;8.696;2023-04-25T13:08:46;9.60;99.90
16846;DHT22;8539;53.188;8.696;2023-04-25T13:11:12;9.70;99.90
16846;DHT22;8539;53.188;8.696;2023-04-25T13:13:41;9.80;99.90
16846;DHT22;8539;53.188;8.696;2023-04-25T13:16:07;9.90;99.90
16846;DHT22;8539;53.188;8.696;2023-04-25T13:18:34;10.20;99.90
16846;DHT22;8539;53.188;8.696;2023-04-25T13:21:00;10.70;99.90
16846;DHT22;8539;53.188;8.696;2023-04-25T13:23:28;11.20;99.90
16846;DHT22;8539;53.188;8.696;2023-04-25T13:25:54;11.50;99.90
16846;DHT22;8539;53.188;8.696;2023-04-25T13:28:24;11.70;99.90
16846;DHT22;8539;53.188;8.696;2023-04-25T13:30:51;11.80;99.90
16846;DHT22;8539;53.188;8.696;2023-04-25T13:33:18;11.80;99.90
16846;DHT22;8539;53.188;8.696;2023-04-25T13:35:44;11.90;99.90
16846;DHT22;8539;53.188;8.696;2023-04-25T13:38:21;11.90;99.60
16846;DHT22;8539;53.188;8.696;2023-04-25T13:40:48;12.00;99.60
16846;DHT22;8539;53.188;8.696;2023-04-25T13:43:15;11.80;99.60
16846;DHT22;8539;53.188;8.696;2023-04-25T13:45:41;11.70;99.60
16846;DHT22;8539;53.188;8.696;2023-04-25T13:48:07;11.60;99.60
16846;DHT22;8539;53.188;8.696;2023-04-25T13:50:33;11.50;99.60
16846;DHT22;8539;53.188;8.696;2023-04-25T13:52:59;11.30;99.90
16846;DHT22;8539;53.188;8.696;2023-04-25T13:55:26;11.00;99.90
16846;DHT22;8539;53.188;8.696;2023-04-25T13:57:52;10.90;99.90
16846;DHT22;8539;53.188;8.696;2023-04-25T14:00:18;10.60;99.90
16846;DHT22;8539;53.188;8.696;2023-04-25T14:02:45;10.40;99.90
16846;DHT22;8539;53.188;8.696;2023-04-25T14:05:11;10.10;99.90
16846;DHT22;8539;53.188;8.696;2023-04-25T14:07:37;10.00;99.90
16846;DHT22;8539;53.188;8.696;2023-04-25T14:10:04;10.00;99.90
16846;DHT22;8539;53.188;8.696;2023-04-25T14:12:32;10.30;99.90
16846;DHT22;8539;53.188;8.696;2023-04-25T14:14:58;10.80;99.90
16846;DHT22;8539;53.188;8.696;2023-04-25T14:17:24;11.20;99.90
16846;DHT22;8539;53.188;8.696;2023-04-25T14:19:50;11.30;99.90
16846;DHT22;8539;53.188;8.696;2023-04-25T14:22:16;11.10;99.90
16846;DHT22;8539;53.188;8.696;2023-04-25T14:24:43;10.60;99.90
16846;DHT22;8539;53.188;8.696;2023-04-25T14:27:09;10.00;99.90
16846;DHT22;8539;53.188;8.696;2023-04-25T14:29:35;9.40;99.90
16846;DHT22;8539;53.188;8.696;2023-04-25T14:32:01;8.80;99.90
16846;DHT22;8539;53.188;8.696;2023-04-25T14:34:27;8.50;99.90
16846;DHT22;8539;53.188;8.696;2023-04-25T14:36:53;8.30;99.90
16846;DHT22;8539;53.188;8.696;2023-04-25T14:39:19;8.30;99.90
16846;DHT22;8539;53.188;8.696;2023-04-25T14:41:46;8.40;99.90
16846;DHT22;8539;53.188;8.696;2023-04-25T14:44:12;8.40;99.90
16846;DHT22;8539;53.188;8.696;2023-04-25T14:46:38;8.40;99.90
16846;DHT22;8539;53.188;8.696;2023-04-25T14:49:05;8.60;99.90
16846;DHT22;8539;53.188;8.696;2023-04-25T14:51:31;8.80;99.90
16846;DHT22;8539;53.188;8.696;2023-04-25T14:53:57;9.20;99.90
16846;DHT22;8539;53.188;8.696;2023-04-25T14:56:24;9.40;99.90
16846;DHT22;8539;53.188;8.696;2023-04-25T14:58:50;9.60;99.90
16846;DHT22;8539;53.188;8.696;2023-04-25T15:01:30;9.70;99.90
16846;DHT22;8539;53.188;8.696;2023-04-25T15:03:56;9.60;99.90
16846;DHT22;8539;53.188;8.696;2023-04-25T15:06:23;9.50;99.90
16846;DHT22;8539;53.188;8.696;2023-04-25T15:08:52;9.30;99.90
16846;DHT22;8539;53.188;8.696;2023-04-25T15:11:18;8.90;99.90
16846;DHT22;8539;53.188;8.696;2023-04-25T15:13:46;8.70;99.90
16846;DHT22;8539;53.188;8.696;2023-04-25T15:16:12;8.60;99.90
16846;DHT22;8539;53.188;8.696;2023-04-25T15:18:38;8.50;99.90
16846;DHT22;8539;53.188;8.696;2023-04-25T15:21:04;8.60;99.90
16846;DHT22;8539;53.188;8.696;2023-04-25T15:23:31;8.50;99.90
16846;DHT22;8539;53.188;8.696;2023-04-25T15:25:57;8.50;99.90
16846;DHT22;8539;53.188;8.696;2023-04-25T15:28:23;8.50;99.90
16846;DHT22;8539;53.188;8.696;2023-04-25T15:30:49;8.60;99.90
16846;DHT22;8539;53.188;8.696;2023-04-25T15:33:16;8.60;99.90
16846;DHT22;8539;53.188;8.696;2023-04-25T15:35:42;8.60;99.90
16846;DHT22;8539;53.188;8.696;2023-04-25T15:38:11;8.70;99.90
16846;DHT22;8539;53.188;8.696;2023-04-25T15:40:38;8.70;99.90
16846;DHT22;8539;53.188;8.696;2023-04-25T15:43:04;8.70;99.90
16846;DHT22;8539;53.188;8.696;2023-04-25T15:45:30;8.60;99.90
16846;DHT22;8539;53.188;8.696;2023-04-25T15:47:57;8.60;99.90
16846;DHT22;8539;53.188;8.696;2023-04-25T15:50:24;8.50;99.90
16846;DHT22;8539;53.188;8.696;2023-04-25T15:52:50;8.40;99.90
16846;DHT22;8539;53.188;8.696;2023-04-25T15:55:17;8.40;99.90
16846;DHT22;8539;53.188;8.696;2023-04-25T15:57:43;8.40;99.90
16846;DHT22;8539;53.188;8.696;2023-04-25T16:00:11;8.50;99.90
16846;DHT22;8539;53.188;8.696;2023-04-25T16:02:44;8.60;99.90
16846;DHT22;8539;53.188;8.696;2023-04-25T16:05:10;8.80;99.90
16846;DHT22;8539;53.188;8.696;2023-04-25T16:07:38;8.80;99.90
16846;DHT22;8539;53.188;8.696;2023-04-25T16:10:06;8.80;99.90